X  Κλείσε Στοιχεία αεροπορικών μετεωρολογικών δεδομένων METAR        EBOS Ostend-Bruges International Airport
θερμοκρασία
20°C θερμοκρασία
14°C Σημείο δρόσου
68% Υγρασία



Ανεμος
19 KM/H
12 MPH
5 M/S
10 KTS



270°
D
Τρέχουσες συνθήκες

Mostly Sunny Κυρίως αίθριος
πίεση 1013 (hPa) - 29.91 (inHg)
Ορατότητα 6 (μίλι) - 10 (km)
Aεροδρόμιο
Κωδικός αεροδρομίου EBOS

Τοποθεσία: Ostend-Bruges International Airport
Απόσταση: 60 (km)

Metar:
METAR EBOS 141650Z 27010KT 9999 FEW025 20/14 Q1013 NOSIG

ώρα: 14-07-2024 18:50 CEST